TimeCDT,TemperatureF,Dew PointF,Humidity,Sea Level PressureIn,VisibilityMPH,Wind Direction,Wind SpeedMPH,Gust SpeedMPH,PrecipitationIn,Events,Conditions,WindDirDegrees,DateUTC
12:13 AM,63.5,43.7,48,29.81,10.0,SE,4.6,-,N/A,,Clear,130,2012-10-04 05:13:00
12:34 AM,63.7,42.6,46,29.80,10.0,SE,6.9,-,N/A,,Scattered Clouds,130,2012-10-04 05:34:00
12:53 AM,64.6,41.7,43,29.79,10.0,SE,9.2,17.3,N/A,,Scattered Clouds,130,2012-10-04 05:53:00
1:13 AM,64.4,41.0,42,29.77,10.0,SE,6.9,-,N/A,,Clear,130,2012-10-04 06:13:00
1:34 AM,63.7,41.0,43,29.76,10.0,SE,11.5,16.1,N/A,,Clear,130,2012-10-04 06:34:00
1:53 AM,63.9,40.3,42,29.76,10.0,SE,9.2,-,N/A,,Clear,130,2012-10-04 06:53:00
2:14 AM,65.5,39.2,38,29.76,10.0,SSE,13.8,21.9,N/A,,Clear,150,2012-10-04 07:14:00
2:33 AM,65.5,38.5,37,29.76,10.0,SSE,12.7,20.7,N/A,,Clear,160,2012-10-04 07:33:00
2:53 AM,63.7,37.8,38,29.74,10.0,South,12.7,21.9,N/A,,Clear,170,2012-10-04 07:53:00
3:14 AM,62.1,37.8,41,29.75,10.0,SSW,17.3,24.2,N/A,,Clear,210,2012-10-04 08:14:00
3:33 AM,54.5,41.2,61,29.77,7.0,SSW,17.3,28.8,N/A,,Clear,210,2012-10-04 08:33:00
3:53 AM,52.5,41.7,67,29.79,10.0,SSW,18.4,26.5,N/A,,Clear,210,2012-10-04 08:53:00
4:13 AM,49.1,41.9,76,29.80,10.0,SW,12.7,20.7,N/A,,Clear,220,2012-10-04 09:13:00
4:33 AM,48.2,41.5,78,29.80,10.0,SW,16.1,25.3,N/A,,Mostly Cloudy,220,2012-10-04 09:33:00
4:54 AM,48.2,41.4,77,29.81,10.0,SW,10.4,21.9,N/A,,Overcast,220,2012-10-04 09:54:00
5:13 AM,47.7,41.2,78,29.82,10.0,SW,12.7,21.9,N/A,,Overcast,220,2012-10-04 10:13:00
5:33 AM,47.8,41.2,78,29.84,10.0,WSW,17.3,26.5,N/A,,Overcast,240,2012-10-04 10:33:00
5:54 AM,47.3,41.0,79,29.84,10.0,WSW,16.1,25.3,N/A,,Overcast,240,2012-10-04 10:54:00
6:13 AM,46.4,40.3,79,29.85,10.0,WSW,13.8,21.9,N/A,,Overcast,240,2012-10-04 11:13:00
6:33 AM,46.0,40.3,80,29.85,10.0,WSW,19.6,31.1,N/A,,Overcast,250,2012-10-04 11:33:00
6:53 AM,45.5,39.7,80,29.86,10.0,WSW,13.8,24.2,N/A,,Overcast,250,2012-10-04 11:53:00
7:13 AM,44.6,38.7,80,29.87,10.0,WSW,15.0,32.2,N/A,,Overcast,240,2012-10-04 12:13:00
7:33 AM,42.8,37.0,80,29.89,10.0,WSW,17.3,29.9,N/A,,Overcast,250,2012-10-04 12:33:00
7:53 AM,41.9,36.0,79,29.90,10.0,WSW,19.6,28.8,N/A,,Overcast,250,2012-10-04 12:53:00
8:13 AM,41.5,35.6,79,29.91,10.0,WSW,16.1,25.3,N/A,,Overcast,240,2012-10-04 13:13:00
8:33 AM,41.4,34.9,78,29.91,10.0,WSW,15.0,25.3,N/A,,Mostly Cloudy,240,2012-10-04 13:33:00
8:53 AM,41.4,34.7,77,29.93,10.0,WSW,16.1,24.2,N/A,,Overcast,240,2012-10-04 13:53:00
9:13 AM,41.9,34.3,75,29.93,10.0,WSW,15.0,24.2,N/A,,Overcast,240,2012-10-04 14:13:00
9:34 AM,41.7,33.6,73,29.95,10.0,WSW,16.1,27.6,N/A,,Overcast,240,2012-10-04 14:34:00
9:53 AM,41.9,33.8,73,29.95,10.0,West,19.6,28.8,N/A,,Overcast,260,2012-10-04 14:53:00
10:13 AM,41.9,34.0,73,29.96,10.0,WSW,16.1,24.2,N/A,,Overcast,240,2012-10-04 15:13:00
10:34 AM,41.5,33.4,73,29.98,10.0,West,19.6,29.9,N/A,,Overcast,260,2012-10-04 15:34:00
10:53 AM,43.0,33.3,69,29.98,10.0,West,20.7,31.1,N/A,,Overcast,260,2012-10-04 15:53:00
11:14 AM,42.8,32.9,68,29.99,10.0,WSW,18.4,31.1,N/A,,Overcast,250,2012-10-04 16:14:00
11:33 AM,43.3,33.1,67,30.00,10.0,WSW,19.6,28.8,N/A,,Overcast,250,2012-10-04 16:33:00
11:53 AM,44.4,32.7,64,30.00,10.0,West,20.7,32.2,N/A,,Overcast,260,2012-10-04 16:53:00
12:13 PM,44.4,32.0,62,30.01,4.0,West,23.0,39.1,N/A,,Haze,260,2012-10-04 17:13:00
12:33 PM,44.8,32.2,61,30.03,10.0,West,26.5,36.8,N/A,,Overcast,270,2012-10-04 17:33:00
12:54 PM,45.9,32.9,61,30.04,10.0,West,24.2,32.2,N/A,,Overcast,260,2012-10-04 17:54:00
1:34 PM,45.5,32.0,59,30.05,10.0,West,27.6,33.4,N/A,,Overcast,260,2012-10-04 18:34:00
1:53 PM,46.0,32.4,59,30.06,7.0,West,24.2,34.5,N/A,,Overcast,260,2012-10-04 18:53:00
2:13 PM,46.2,32.0,58,30.06,7.0,West,26.5,35.7,N/A,,Overcast,270,2012-10-04 19:13:00
2:34 PM,46.9,32.2,57,30.07,7.0,West,23.0,33.4,N/A,,Overcast,260,2012-10-04 19:34:00
2:53 PM,46.6,32.0,57,30.07,7.0,West,23.0,32.2,N/A,,Overcast,280,2012-10-04 19:53:00
3:13 PM,46.4,31.8,57,30.08,7.0,West,23.0,35.7,N/A,,Overcast,270,2012-10-04 20:13:00
3:34 PM,46.9,32.0,56,30.08,7.0,West,27.6,33.4,N/A,,Overcast,270,2012-10-04 20:34:00
3:53 PM,46.2,32.0,58,30.09,7.0,West,26.5,34.5,N/A,,Overcast,260,2012-10-04 20:53:00
4:13 PM,45.5,31.8,59,30.09,10.0,West,26.5,34.5,N/A,,Overcast,260,2012-10-04 21:13:00
4:34 PM,45.5,31.8,59,30.10,10.0,West,19.6,31.1,N/A,,Overcast,260,2012-10-04 21:34:00
4:53 PM,44.6,31.6,60,30.11,10.0,West,24.2,32.2,N/A,,Overcast,260,2012-10-04 21:53:00
5:13 PM,44.6,31.3,60,30.11,10.0,West,19.6,32.2,N/A,,Overcast,260,2012-10-04 22:13:00
5:34 PM,44.6,31.3,60,30.12,10.0,West,17.3,28.8,N/A,,Overcast,270,2012-10-04 22:34:00
5:53 PM,44.6,31.1,59,30.13,10.0,West,23.0,29.9,N/A,,Overcast,270,2012-10-04 22:53:00
6:13 PM,44.1,31.1,60,30.13,10.0,West,19.6,29.9,N/A,,Overcast,270,2012-10-04 23:13:00
6:34 PM,43.7,30.7,60,30.13,10.0,West,24.2,29.9,N/A,,Overcast,270,2012-10-04 23:34:00
6:53 PM,43.7,30.6,60,30.13,10.0,West,20.7,32.2,N/A,,Overcast,270,2012-10-04 23:53:00
7:13 PM,43.0,30.6,62,30.14,10.0,West,17.3,29.9,N/A,,Overcast,260,2012-10-05 00:13:00
7:34 PM,43.3,30.9,62,30.14,10.0,West,17.3,23.0,N/A,,Overcast,280,2012-10-05 00:34:00
7:53 PM,43.3,30.7,61,30.14,10.0,West,15.0,25.3,N/A,,Overcast,270,2012-10-05 00:53:00
9:13 PM,41.9,31.1,66,30.15,10.0,West,18.4,25.3,N/A,,Scattered Clouds,260,2012-10-05 02:13:00
9:33 PM,41.9,31.3,66,30.15,10.0,West,20.7,27.6,N/A,,Scattered Clouds,270,2012-10-05 02:33:00
9:53 PM,41.5,31.5,67,30.16,10.0,West,18.4,27.6,N/A,,Scattered Clouds,260,2012-10-05 02:53:00
10:14 PM,41.9,31.8,67,30.16,10.0,WSW,12.7,23.0,N/A,,Mostly Cloudy,250,2012-10-05 03:14:00
10:33 PM,41.9,32.0,68,30.16,10.0,West,18.4,21.9,N/A,,Overcast,260,2012-10-05 03:33:00
10:53 PM,41.9,30.9,65,30.16,10.0,West,17.3,28.8,N/A,,Overcast,270,2012-10-05 03:53:00
11:14 PM,41.9,32.0,68,30.16,10.0,West,21.9,31.1,N/A,,Overcast,270,2012-10-05 04:14:00
11:33 PM,41.5,31.5,67,30.16,10.0,West,17.3,23.0,N/A,,Overcast,280,2012-10-05 04:33:00
11:53 PM,41.9,31.5,66,30.16,10.0,West,18.4,24.2,N/A,,Overcast,270,2012-10-05 04:53:00